sensor_id;sensor_type;location;lat;lon;timestamp;P1;durP1;ratioP1;P2;durP2;ratioP2
15968;SDS011;8085;53.472;9.794;2023-04-03T00:00:09;5.43;;;1.90;;
15968;SDS011;8085;53.472;9.794;2023-04-03T00:02:36;6.23;;;1.73;;
15968;SDS011;8085;53.472;9.794;2023-04-03T00:05:03;4.23;;;1.90;;
15968;SDS011;8085;53.472;9.794;2023-04-03T00:07:31;6.00;;;1.97;;
15968;SDS011;8085;53.472;9.794;2023-04-03T00:09:59;4.77;;;1.80;;
15968;SDS011;8085;53.472;9.794;2023-04-03T00:12:26;4.90;;;1.60;;
15968;SDS011;8085;53.472;9.794;2023-04-03T00:14:53;9.23;;;1.73;;
15968;SDS011;8085;53.472;9.794;2023-04-03T00:17:20;5.33;;;1.87;;
15968;SDS011;8085;53.472;9.794;2023-04-03T00:19:47;4.77;;;1.57;;
15968;SDS011;8085;53.472;9.794;2023-04-03T00:22:14;4.47;;;1.70;;
15968;SDS011;8085;53.472;9.794;2023-04-03T00:24:41;5.43;;;2.10;;
15968;SDS011;8085;53.472;9.794;2023-04-03T00:27:09;8.00;;;1.80;;
15968;SDS011;8085;53.472;9.794;2023-04-03T00:29:36;4.50;;;1.97;;
15968;SDS011;8085;53.472;9.794;2023-04-03T00:32:04;6.57;;;1.90;;
15968;SDS011;8085;53.472;9.794;2023-04-03T00:34:31;3.73;;;1.60;;
15968;SDS011;8085;53.472;9.794;2023-04-03T00:36:58;3.87;;;1.70;;
15968;SDS011;8085;53.472;9.794;2023-04-03T00:39:25;4.30;;;2.00;;
15968;SDS011;8085;53.472;9.794;2023-04-03T00:41:52;4.50;;;1.93;;
15968;SDS011;8085;53.472;9.794;2023-04-03T00:47:24;3.93;;;1.50;;
15968;SDS011;8085;53.472;9.794;2023-04-03T00:49:51;5.60;;;1.80;;
15968;SDS011;8085;53.472;9.794;2023-04-03T00:52:21;3.93;;;1.67;;
15968;SDS011;8085;53.472;9.794;2023-04-03T00:54:52;7.90;;;1.80;;
15968;SDS011;8085;53.472;9.794;2023-04-03T00:57:23;4.70;;;2.00;;
15968;SDS011;8085;53.472;9.794;2023-04-03T00:59:51;4.47;;;2.17;;
15968;SDS011;8085;53.472;9.794;2023-04-03T01:02:22;7.57;;;2.03;;
15968;SDS011;8085;53.472;9.794;2023-04-03T01:04:51;3.80;;;1.73;;
15968;SDS011;8085;53.472;9.794;2023-04-03T01:07:19;9.30;;;2.50;;
15968;SDS011;8085;53.472;9.794;2023-04-03T01:09:49;3.37;;;1.90;;
15968;SDS011;8085;53.472;9.794;2023-04-03T01:12:20;3.63;;;1.80;;
15968;SDS011;8085;53.472;9.794;2023-04-03T01:14:50;6.07;;;2.17;;
15968;SDS011;8085;53.472;9.794;2023-04-03T01:17:26;3.67;;;1.70;;
15968;SDS011;8085;53.472;9.794;2023-04-03T01:19:57;4.27;;;1.87;;
15968;SDS011;8085;53.472;9.794;2023-04-03T01:22:42;5.63;;;1.67;;
15968;SDS011;8085;53.472;9.794;2023-04-03T01:25:15;7.67;;;2.30;;
15968;SDS011;8085;53.472;9.794;2023-04-03T01:27:42;5.43;;;1.90;;
15968;SDS011;8085;53.472;9.794;2023-04-03T01:30:10;7.33;;;2.20;;
15968;SDS011;8085;53.472;9.794;2023-04-03T01:32:40;5.63;;;1.93;;
15968;SDS011;8085;53.472;9.794;2023-04-03T01:35:07;6.93;;;2.23;;
15968;SDS011;8085;53.472;9.794;2023-04-03T01:37:35;3.00;;;1.60;;
15968;SDS011;8085;53.472;9.794;2023-04-03T01:40:03;4.07;;;1.87;;
15968;SDS011;8085;53.472;9.794;2023-04-03T01:42:32;3.03;;;1.57;;
15968;SDS011;8085;53.472;9.794;2023-04-03T01:44:59;6.20;;;2.00;;
15968;SDS011;8085;53.472;9.794;2023-04-03T01:47:26;4.90;;;1.77;;
15968;SDS011;8085;53.472;9.794;2023-04-03T01:49:54;5.53;;;1.97;;
15968;SDS011;8085;53.472;9.794;2023-04-03T01:52:21;9.73;;;2.23;;
15968;SDS011;8085;53.472;9.794;2023-04-03T01:54:48;6.67;;;2.30;;
15968;SDS011;8085;53.472;9.794;2023-04-03T01:57:15;7.67;;;2.20;;
15968;SDS011;8085;53.472;9.794;2023-04-03T01:59:42;4.60;;;2.63;;
15968;SDS011;8085;53.472;9.794;2023-04-03T02:02:09;4.40;;;2.00;;
15968;SDS011;8085;53.472;9.794;2023-04-03T02:04:37;6.57;;;2.20;;
15968;SDS011;8085;53.472;9.794;2023-04-03T02:07:06;4.53;;;2.17;;
15968;SDS011;8085;53.472;9.794;2023-04-03T02:09:33;5.77;;;2.90;;
15968;SDS011;8085;53.472;9.794;2023-04-03T02:12:00;4.80;;;2.63;;
15968;SDS011;8085;53.472;9.794;2023-04-03T02:14:27;4.20;;;2.13;;
15968;SDS011;8085;53.472;9.794;2023-04-03T02:16:54;5.43;;;2.40;;
15968;SDS011;8085;53.472;9.794;2023-04-03T02:19:21;6.20;;;2.50;;
15968;SDS011;8085;53.472;9.794;2023-04-03T02:21:48;4.03;;;1.93;;
15968;SDS011;8085;53.472;9.794;2023-04-03T02:24:16;4.73;;;2.40;;
15968;SDS011;8085;53.472;9.794;2023-04-03T02:26:43;4.87;;;2.47;;
15968;SDS011;8085;53.472;9.794;2023-04-03T02:29:10;5.83;;;2.27;;
15968;SDS011;8085;53.472;9.794;2023-04-03T02:31:37;9.13;;;2.13;;
15968;SDS011;8085;53.472;9.794;2023-04-03T02:34:04;7.53;;;2.70;;
15968;SDS011;8085;53.472;9.794;2023-04-03T02:36:31;3.60;;;2.10;;
15968;SDS011;8085;53.472;9.794;2023-04-03T02:38:58;4.73;;;2.23;;
15968;SDS011;8085;53.472;9.794;2023-04-03T02:41:27;7.27;;;2.37;;
15968;SDS011;8085;53.472;9.794;2023-04-03T02:43:59;5.20;;;2.43;;
15968;SDS011;8085;53.472;9.794;2023-04-03T02:46:26;7.23;;;2.50;;
15968;SDS011;8085;53.472;9.794;2023-04-03T02:48:53;4.30;;;2.27;;
15968;SDS011;8085;53.472;9.794;2023-04-03T02:51:21;4.80;;;2.40;;
15968;SDS011;8085;53.472;9.794;2023-04-03T02:53:48;4.07;;;1.90;;
15968;SDS011;8085;53.472;9.794;2023-04-03T02:56:15;6.60;;;2.10;;
15968;SDS011;8085;53.472;9.794;2023-04-03T02:58:44;4.47;;;2.20;;
15968;SDS011;8085;53.472;9.794;2023-04-03T03:01:12;9.60;;;2.90;;
15968;SDS011;8085;53.472;9.794;2023-04-03T03:03:40;6.63;;;2.53;;
15968;SDS011;8085;53.472;9.794;2023-04-03T03:06:07;5.70;;;2.30;;
15968;SDS011;8085;53.472;9.794;2023-04-03T03:08:36;5.73;;;2.20;;
15968;SDS011;8085;53.472;9.794;2023-04-03T03:11:04;6.40;;;2.40;;
15968;SDS011;8085;53.472;9.794;2023-04-03T03:13:31;6.67;;;2.30;;
15968;SDS011;8085;53.472;9.794;2023-04-03T03:16:00;3.97;;;2.00;;
15968;SDS011;8085;53.472;9.794;2023-04-03T03:18:28;9.57;;;2.37;;
15968;SDS011;8085;53.472;9.794;2023-04-03T03:20:56;6.67;;;2.50;;
15968;SDS011;8085;53.472;9.794;2023-04-03T03:23:24;6.07;;;2.23;;
15968;SDS011;8085;53.472;9.794;2023-04-03T03:25:54;6.10;;;2.20;;
15968;SDS011;8085;53.472;9.794;2023-04-03T03:28:21;9.73;;;2.80;;
15968;SDS011;8085;53.472;9.794;2023-04-03T03:30:48;7.03;;;2.20;;
15968;SDS011;8085;53.472;9.794;2023-04-03T03:33:17;7.20;;;2.83;;
15968;SDS011;8085;53.472;9.794;2023-04-03T03:35:44;5.13;;;2.30;;
15968;SDS011;8085;53.472;9.794;2023-04-03T03:38:11;5.13;;;2.47;;
15968;SDS011;8085;53.472;9.794;2023-04-03T03:40:38;5.97;;;2.70;;
15968;SDS011;8085;53.472;9.794;2023-04-03T03:43:05;5.43;;;1.90;;
15968;SDS011;8085;53.472;9.794;2023-04-03T03:45:33;3.90;;;2.20;;
15968;SDS011;8085;53.472;9.794;2023-04-03T03:48:00;7.73;;;2.90;;
15968;SDS011;8085;53.472;9.794;2023-04-03T03:50:28;7.40;;;3.20;;
15968;SDS011;8085;53.472;9.794;2023-04-03T03:52:55;7.07;;;2.63;;
15968;SDS011;8085;53.472;9.794;2023-04-03T03:55:22;5.13;;;2.73;;
15968;SDS011;8085;53.472;9.794;2023-04-03T03:57:49;5.17;;;2.60;;
15968;SDS011;8085;53.472;9.794;2023-04-03T04:00:16;6.90;;;2.87;;
15968;SDS011;8085;53.472;9.794;2023-04-03T04:02:43;8.93;;;3.50;;
15968;SDS011;8085;53.472;9.794;2023-04-03T04:05:10;8.43;;;3.50;;
15968;SDS011;8085;53.472;9.794;2023-04-03T04:07:39;8.03;;;3.00;;
15968;SDS011;8085;53.472;9.794;2023-04-03T04:10:06;8.57;;;3.30;;
15968;SDS011;8085;53.472;9.794;2023-04-03T04:12:34;9.30;;;3.67;;
15968;SDS011;8085;53.472;9.794;2023-04-03T04:15:01;11.17;;;3.87;;
15968;SDS011;8085;53.472;9.794;2023-04-03T04:17:28;5.63;;;3.13;;
15968;SDS011;8085;53.472;9.794;2023-04-03T04:19:55;5.97;;;2.97;;
15968;SDS011;8085;53.472;9.794;2023-04-03T04:22:22;7.33;;;2.97;;
15968;SDS011;8085;53.472;9.794;2023-04-03T04:24:50;6.67;;;3.27;;
15968;SDS011;8085;53.472;9.794;2023-04-03T04:27:17;7.77;;;3.20;;
15968;SDS011;8085;53.472;9.794;2023-04-03T04:29:44;8.53;;;3.40;;
15968;SDS011;8085;53.472;9.794;2023-04-03T04:32:11;5.93;;;2.93;;
15968;SDS011;8085;53.472;9.794;2023-04-03T04:34:38;8.50;;;3.30;;
15968;SDS011;8085;53.472;9.794;2023-04-03T04:37:05;6.03;;;3.03;;
15968;SDS011;8085;53.472;9.794;2023-04-03T04:39:32;8.40;;;3.50;;
15968;SDS011;8085;53.472;9.794;2023-04-03T04:42:01;5.90;;;2.63;;
15968;SDS011;8085;53.472;9.794;2023-04-03T04:44:28;9.47;;;3.80;;
15968;SDS011;8085;53.472;9.794;2023-04-03T04:46:55;5.27;;;3.23;;
15968;SDS011;8085;53.472;9.794;2023-04-03T04:49:21;8.83;;;3.73;;
15968;SDS011;8085;53.472;9.794;2023-04-03T04:51:48;13.57;;;5.20;;
15968;SDS011;8085;53.472;9.794;2023-04-03T04:54:15;13.63;;;6.30;;
15968;SDS011;8085;53.472;9.794;2023-04-03T04:56:42;17.67;;;6.93;;
15968;SDS011;8085;53.472;9.794;2023-04-03T04:59:11;14.77;;;6.40;;
15968;SDS011;8085;53.472;9.794;2023-04-03T05:01:38;13.90;;;6.00;;
15968;SDS011;8085;53.472;9.794;2023-04-03T05:04:05;14.10;;;6.57;;
15968;SDS011;8085;53.472;9.794;2023-04-03T05:06:32;13.03;;;6.23;;
15968;SDS011;8085;53.472;9.794;2023-04-03T05:09:00;12.97;;;5.57;;
15968;SDS011;8085;53.472;9.794;2023-04-03T05:11:27;13.57;;;4.97;;
15968;SDS011;8085;53.472;9.794;2023-04-03T05:13:54;14.67;;;5.07;;
15968;SDS011;8085;53.472;9.794;2023-04-03T05:16:22;9.23;;;3.87;;
15968;SDS011;8085;53.472;9.794;2023-04-03T05:18:49;16.87;;;4.70;;
15968;SDS011;8085;53.472;9.794;2023-04-03T05:21:16;10.63;;;4.47;;
15968;SDS011;8085;53.472;9.794;2023-04-03T05:23:44;11.27;;;4.10;;
15968;SDS011;8085;53.472;9.794;2023-04-03T05:26:11;8.80;;;4.00;;
15968;SDS011;8085;53.472;9.794;2023-04-03T05:28:38;10.83;;;4.33;;
15968;SDS011;8085;53.472;9.794;2023-04-03T05:31:05;7.03;;;4.00;;
15968;SDS011;8085;53.472;9.794;2023-04-03T05:33:35;12.40;;;3.90;;
15968;SDS011;8085;53.472;9.794;2023-04-03T05:36:03;6.40;;;3.77;;
15968;SDS011;8085;53.472;9.794;2023-04-03T05:38:31;13.20;;;5.17;;
15968;SDS011;8085;53.472;9.794;2023-04-03T05:41:01;12.87;;;4.57;;
15968;SDS011;8085;53.472;9.794;2023-04-03T05:43:28;10.23;;;4.47;;
15968;SDS011;8085;53.472;9.794;2023-04-03T05:45:55;11.43;;;3.80;;
15968;SDS011;8085;53.472;9.794;2023-04-03T05:48:22;6.87;;;3.43;;
15968;SDS011;8085;53.472;9.794;2023-04-03T05:50:50;6.93;;;3.20;;
15968;SDS011;8085;53.472;9.794;2023-04-03T05:53:17;9.80;;;3.13;;
15968;SDS011;8085;53.472;9.794;2023-04-03T05:55:47;6.87;;;3.13;;
15968;SDS011;8085;53.472;9.794;2023-04-03T05:58:14;6.43;;;3.37;;
15968;SDS011;8085;53.472;9.794;2023-04-03T06:00:41;6.53;;;3.40;;
15968;SDS011;8085;53.472;9.794;2023-04-03T06:03:09;7.83;;;3.63;;
15968;SDS011;8085;53.472;9.794;2023-04-03T06:05:36;10.93;;;4.07;;
15968;SDS011;8085;53.472;9.794;2023-04-03T06:08:04;8.97;;;3.37;;
15968;SDS011;8085;53.472;9.794;2023-04-03T06:10:31;7.10;;;3.20;;
15968;SDS011;8085;53.472;9.794;2023-04-03T06:12:58;6.37;;;3.17;;
15968;SDS011;8085;53.472;9.794;2023-04-03T06:15:25;6.77;;;3.73;;
15968;SDS011;8085;53.472;9.794;2023-04-03T06:17:52;8.50;;;3.77;;
15968;SDS011;8085;53.472;9.794;2023-04-03T06:20:19;7.40;;;3.23;;
15968;SDS011;8085;53.472;9.794;2023-04-03T06:22:47;6.77;;;3.30;;
15968;SDS011;8085;53.472;9.794;2023-04-03T06:25:16;4.73;;;2.90;;
15968;SDS011;8085;53.472;9.794;2023-04-03T06:27:43;8.13;;;4.03;;
15968;SDS011;8085;53.472;9.794;2023-04-03T06:30:11;9.20;;;4.13;;
15968;SDS011;8085;53.472;9.794;2023-04-03T06:32:38;16.87;;;3.90;;
15968;SDS011;8085;53.472;9.794;2023-04-03T06:35:05;7.43;;;3.57;;
15968;SDS011;8085;53.472;9.794;2023-04-03T06:37:33;8.93;;;3.50;;
15968;SDS011;8085;53.472;9.794;2023-04-03T06:40:00;8.10;;;3.90;;
15968;SDS011;8085;53.472;9.794;2023-04-03T06:42:29;14.63;;;4.50;;
15968;SDS011;8085;53.472;9.794;2023-04-03T06:44:56;10.43;;;4.20;;
15968;SDS011;8085;53.472;9.794;2023-04-03T06:47:23;7.23;;;3.70;;
15968;SDS011;8085;53.472;9.794;2023-04-03T06:49:50;7.90;;;3.63;;
15968;SDS011;8085;53.472;9.794;2023-04-03T06:52:17;10.23;;;4.07;;
15968;SDS011;8085;53.472;9.794;2023-04-03T06:54:44;10.00;;;3.90;;
15968;SDS011;8085;53.472;9.794;2023-04-03T06:57:12;9.10;;;3.93;;
15968;SDS011;8085;53.472;9.794;2023-04-03T06:59:41;6.37;;;3.67;;
15968;SDS011;8085;53.472;9.794;2023-04-03T07:02:09;7.67;;;3.57;;
15968;SDS011;8085;53.472;9.794;2023-04-03T07:04:41;6.77;;;3.13;;
15968;SDS011;8085;53.472;9.794;2023-04-03T07:07:08;8.97;;;3.50;;
15968;SDS011;8085;53.472;9.794;2023-04-03T07:09:34;10.47;;;3.53;;
15968;SDS011;8085;53.472;9.794;2023-04-03T07:12:02;6.13;;;3.37;;
15968;SDS011;8085;53.472;9.794;2023-04-03T07:14:29;11.30;;;3.77;;
15968;SDS011;8085;53.472;9.794;2023-04-03T07:16:57;5.20;;;3.20;;
15968;SDS011;8085;53.472;9.794;2023-04-03T07:19:24;5.17;;;3.30;;
15968;SDS011;8085;53.472;9.794;2023-04-03T07:21:53;12.77;;;3.60;;
15968;SDS011;8085;53.472;9.794;2023-04-03T07:24:23;9.67;;;3.70;;
15968;SDS011;8085;53.472;9.794;2023-04-03T07:26:51;11.67;;;3.57;;
15968;SDS011;8085;53.472;9.794;2023-04-03T07:29:19;11.27;;;3.40;;
15968;SDS011;8085;53.472;9.794;2023-04-03T07:31:46;10.53;;;3.83;;
15968;SDS011;8085;53.472;9.794;2023-04-03T07:34:15;8.30;;;3.07;;
15968;SDS011;8085;53.472;9.794;2023-04-03T07:36:42;8.43;;;3.50;;
15968;SDS011;8085;53.472;9.794;2023-04-03T07:39:09;9.23;;;3.07;;
15968;SDS011;8085;53.472;9.794;2023-04-03T07:41:36;6.33;;;2.83;;
15968;SDS011;8085;53.472;9.794;2023-04-03T07:44:03;5.87;;;2.77;;
15968;SDS011;8085;53.472;9.794;2023-04-03T07:46:30;5.30;;;2.57;;
15968;SDS011;8085;53.472;9.794;2023-04-03T07:48:57;9.73;;;2.87;;
15968;SDS011;8085;53.472;9.794;2023-04-03T07:51:26;4.93;;;2.73;;
15968;SDS011;8085;53.472;9.794;2023-04-03T07:53:54;6.20;;;2.53;;
15968;SDS011;8085;53.472;9.794;2023-04-03T07:56:21;6.20;;;2.73;;
15968;SDS011;8085;53.472;9.794;2023-04-03T07:58:50;6.07;;;2.30;;
15968;SDS011;8085;53.472;9.794;2023-04-03T08:01:17;9.07;;;2.30;;
15968;SDS011;8085;53.472;9.794;2023-04-03T08:03:43;4.30;;;2.27;;
15968;SDS011;8085;53.472;9.794;2023-04-03T08:06:10;6.70;;;2.50;;
15968;SDS011;8085;53.472;9.794;2023-04-03T08:08:40;9.40;;;2.27;;
15968;SDS011;8085;53.472;9.794;2023-04-03T08:11:07;2.83;;;1.10;;
15968;SDS011;8085;53.472;9.794;2023-04-03T08:13:34;6.57;;;1.37;;
15968;SDS011;8085;53.472;9.794;2023-04-03T08:16:07;3.13;;;1.00;;
15968;SDS011;8085;53.472;9.794;2023-04-03T08:18:35;2.47;;;1.10;;
15968;SDS011;8085;53.472;9.794;2023-04-03T08:21:05;5.03;;;1.30;;
15968;SDS011;8085;53.472;9.794;2023-04-03T08:23:32;2.90;;;1.40;;
15968;SDS011;8085;53.472;9.794;2023-04-03T08:26:04;4.03;;;1.30;;
15968;SDS011;8085;53.472;9.794;2023-04-03T08:28:32;5.17;;;1.70;;
15968;SDS011;8085;53.472;9.794;2023-04-03T08:31:02;3.57;;;1.40;;
15968;SDS011;8085;53.472;9.794;2023-04-03T08:33:32;3.03;;;1.17;;
15968;SDS011;8085;53.472;9.794;2023-04-03T08:36:00;5.27;;;1.30;;
15968;SDS011;8085;53.472;9.794;2023-04-03T08:38:28;5.17;;;1.37;;
15968;SDS011;8085;53.472;9.794;2023-04-03T08:41:07;5.33;;;1.30;;
15968;SDS011;8085;53.472;9.794;2023-04-03T08:43:44;2.50;;;1.20;;
15968;SDS011;8085;53.472;9.794;2023-04-03T08:46:21;4.03;;;1.30;;
15968;SDS011;8085;53.472;9.794;2023-04-03T08:48:51;3.50;;;1.10;;
15968;SDS011;8085;53.472;9.794;2023-04-03T08:51:20;2.03;;;0.80;;
15968;SDS011;8085;53.472;9.794;2023-04-03T08:53:51;3.00;;;1.10;;
15968;SDS011;8085;53.472;9.794;2023-04-03T08:56:24;4.43;;;1.17;;
15968;SDS011;8085;53.472;9.794;2023-04-03T08:58:52;3.20;;;1.10;;
15968;SDS011;8085;53.472;9.794;2023-04-03T09:01:24;2.90;;;1.30;;
15968;SDS011;8085;53.472;9.794;2023-04-03T09:03:56;2.67;;;1.10;;
15968;SDS011;8085;53.472;9.794;2023-04-03T09:06:23;1.90;;;0.73;;
15968;SDS011;8085;53.472;9.794;2023-04-03T09:08:58;2.80;;;1.00;;
15968;SDS011;8085;53.472;9.794;2023-04-03T09:11:39;5.17;;;1.00;;
15968;SDS011;8085;53.472;9.794;2023-04-03T09:14:13;4.37;;;1.40;;
15968;SDS011;8085;53.472;9.794;2023-04-03T09:16:47;2.90;;;1.13;;
15968;SDS011;8085;53.472;9.794;2023-04-03T09:19:20;6.30;;;1.17;;
15968;SDS011;8085;53.472;9.794;2023-04-03T09:21:55;3.50;;;1.33;;
15968;SDS011;8085;53.472;9.794;2023-04-03T09:24:23;2.70;;;1.17;;
15968;SDS011;8085;53.472;9.794;2023-04-03T09:26:55;3.53;;;1.10;;
15968;SDS011;8085;53.472;9.794;2023-04-03T09:29:25;2.67;;;0.90;;
15968;SDS011;8085;53.472;9.794;2023-04-03T09:32:11;2.43;;;;;
15968;SDS011;8085;53.472;9.794;2023-04-03T09:34:55;4.23;;;1.10;;
15968;SDS011;8085;53.472;9.794;2023-04-03T09:37:36;4.30;;;1.20;;
15968;SDS011;8085;53.472;9.794;2023-04-03T09:43:19;3.77;;;1.20;;
15968;SDS011;8085;53.472;9.794;2023-04-03T09:45:50;7.67;;;3.10;;
15968;SDS011;8085;53.472;9.794;2023-04-03T09:48:35;4.57;;;1.20;;
15968;SDS011;8085;53.472;9.794;2023-04-03T09:51:08;7.13;;;1.10;;
15968;SDS011;8085;53.472;9.794;2023-04-03T09:53:47;2.70;;;1.00;;
15968;SDS011;8085;53.472;9.794;2023-04-03T09:56:20;2.83;;;1.20;;
15968;SDS011;8085;53.472;9.794;2023-04-03T09:59:05;4.43;;;1.40;;
15968;SDS011;8085;53.472;9.794;2023-04-03T10:01:39;3.03;;;1.20;;
15968;SDS011;8085;53.472;9.794;2023-04-03T10:04:09;5.20;;;1.07;;
15968;SDS011;8085;53.472;9.794;2023-04-03T10:06:39;3.60;;;1.00;;
15968;SDS011;8085;53.472;9.794;2023-04-03T10:09:20;4.47;;;1.07;;
15968;SDS011;8085;53.472;9.794;2023-04-03T10:12:01;3.67;;;1.00;;
15968;SDS011;8085;53.472;9.794;2023-04-03T10:14:33;3.37;;;1.27;;
15968;SDS011;8085;53.472;9.794;2023-04-03T10:17:03;1.93;;;0.97;;
15968;SDS011;8085;53.472;9.794;2023-04-03T10:19:39;2.77;;;0.93;;
15968;SDS011;8085;53.472;9.794;2023-04-03T10:22:13;2.53;;;1.07;;
15968;SDS011;8085;53.472;9.794;2023-04-03T10:24:53;3.07;;;1.07;;
15968;SDS011;8085;53.472;9.794;2023-04-03T10:27:29;2.27;;;1.03;;
15968;SDS011;8085;53.472;9.794;2023-04-03T10:30:07;1.57;;;0.90;;
15968;SDS011;8085;53.472;9.794;2023-04-03T10:32:52;3.90;;;1.00;;
15968;SDS011;8085;53.472;9.794;2023-04-03T10:35:31;2.40;;;0.90;;
15968;SDS011;8085;53.472;9.794;2023-04-03T10:38:09;1.57;;;0.80;;
15968;SDS011;8085;53.472;9.794;2023-04-03T10:40:46;2.50;;;0.70;;
15968;SDS011;8085;53.472;9.794;2023-04-03T10:43:20;1.27;;;0.77;;
15968;SDS011;8085;53.472;9.794;2023-04-03T10:45:59;2.53;;;0.70;;
15968;SDS011;8085;53.472;9.794;2023-04-03T10:48:35;2.33;;;0.93;;
15968;SDS011;8085;53.472;9.794;2023-04-03T10:51:14;2.67;;;0.93;;
15968;SDS011;8085;53.472;9.794;2023-04-03T10:53:50;3.83;;;1.10;;
15968;SDS011;8085;53.472;9.794;2023-04-03T10:56:25;1.83;;;0.80;;
15968;SDS011;8085;53.472;9.794;2023-04-03T10:58:58;2.47;;;0.90;;
15968;SDS011;8085;53.472;9.794;2023-04-03T11:01:36;4.33;;;0.93;;
15968;SDS011;8085;53.472;9.794;2023-04-03T11:04:07;1.70;;;0.80;;
15968;SDS011;8085;53.472;9.794;2023-04-03T11:06:37;3.13;;;1.03;;
15968;SDS011;8085;53.472;9.794;2023-04-03T11:09:11;2.40;;;1.00;;
15968;SDS011;8085;53.472;9.794;2023-04-03T11:11:45;1.00;;;0.60;;
15968;SDS011;8085;53.472;9.794;2023-04-03T11:14:25;2.40;;;0.77;;
15968;SDS011;8085;53.472;9.794;2023-04-03T11:16:59;3.00;;;0.90;;
15968;SDS011;8085;53.472;9.794;2023-04-03T11:19:34;1.67;;;0.90;;
15968;SDS011;8085;53.472;9.794;2023-04-03T11:22:08;2.73;;;0.90;;
15968;SDS011;8085;53.472;9.794;2023-04-03T11:24:39;2.43;;;0.90;;
15968;SDS011;8085;53.472;9.794;2023-04-03T11:27:10;1.93;;;0.80;;
15968;SDS011;8085;53.472;9.794;2023-04-03T11:29:47;2.17;;;0.97;;
15968;SDS011;8085;53.472;9.794;2023-04-03T11:32:34;1.07;;;0.60;;
15968;SDS011;8085;53.472;9.794;2023-04-03T11:35:18;2.73;;;0.80;;
15968;SDS011;8085;53.472;9.794;2023-04-03T11:37:48;1.70;;;0.70;;
15968;SDS011;8085;53.472;9.794;2023-04-03T11:40:20;2.10;;;0.90;;
15968;SDS011;8085;53.472;9.794;2023-04-03T11:42:51;1.63;;;0.93;;
15968;SDS011;8085;53.472;9.794;2023-04-03T11:45:29;5.37;;;1.33;;
15968;SDS011;8085;53.472;9.794;2023-04-03T12:12:41;1.20;;;0.90;;
15968;SDS011;8085;53.472;9.794;2023-04-03T12:15:12;3.40;;;1.23;;
15968;SDS011;8085;53.472;9.794;2023-04-03T12:17:48;2.90;;;1.00;;
15968;SDS011;8085;53.472;9.794;2023-04-03T12:23:26;3.00;;;1.00;;
15968;SDS011;8085;53.472;9.794;2023-04-03T12:26:00;7.17;;;2.70;;
15968;SDS011;8085;53.472;9.794;2023-04-03T12:28:46;3.23;;;1.20;;
15968;SDS011;8085;53.472;9.794;2023-04-03T12:31:18;3.10;;;1.27;;
15968;SDS011;8085;53.472;9.794;2023-04-03T12:33:58;1.70;;;1.00;;
15968;SDS011;8085;53.472;9.794;2023-04-03T12:36:37;1.97;;;0.93;;
15968;SDS011;8085;53.472;9.794;2023-04-03T12:39:13;1.80;;;0.80;;
15968;SDS011;8085;53.472;9.794;2023-04-03T12:42:03;3.57;;;1.10;;
15968;SDS011;8085;53.472;9.794;2023-04-03T12:44:43;3.80;;;1.00;;
15968;SDS011;8085;53.472;9.794;2023-04-03T12:47:22;4.80;;;1.13;;
15968;SDS011;8085;53.472;9.794;2023-04-03T12:49:53;3.93;;;1.20;;
15968;SDS011;8085;53.472;9.794;2023-04-03T12:52:26;4.33;;;1.40;;
15968;SDS011;8085;53.472;9.794;2023-04-03T12:54:59;2.77;;;0.97;;
15968;SDS011;8085;53.472;9.794;2023-04-03T12:57:30;3.57;;;1.07;;
15968;SDS011;8085;53.472;9.794;2023-04-03T12:59:58;2.00;;;1.00;;
15968;SDS011;8085;53.472;9.794;2023-04-03T13:02:26;5.07;;;1.20;;
15968;SDS011;8085;53.472;9.794;2023-04-03T13:04:55;3.60;;;0.90;;
15968;SDS011;8085;53.472;9.794;2023-04-03T13:07:26;4.13;;;0.90;;
15968;SDS011;8085;53.472;9.794;2023-04-03T13:09:58;2.33;;;1.30;;
15968;SDS011;8085;53.472;9.794;2023-04-03T13:12:31;2.37;;;1.07;;
15968;SDS011;8085;53.472;9.794;2023-04-03T13:15:00;2.63;;;1.27;;
15968;SDS011;8085;53.472;9.794;2023-04-03T13:17:33;3.13;;;1.50;;
15968;SDS011;8085;53.472;9.794;2023-04-03T13:20:14;3.03;;;1.40;;
15968;SDS011;8085;53.472;9.794;2023-04-03T13:22:47;3.23;;;1.20;;
15968;SDS011;8085;53.472;9.794;2023-04-03T13:25:16;3.70;;;1.20;;
15968;SDS011;8085;53.472;9.794;2023-04-03T13:27:47;6.43;;;1.20;;
15968;SDS011;8085;53.472;9.794;2023-04-03T13:30:18;2.00;;;0.97;;
15968;SDS011;8085;53.472;9.794;2023-04-03T13:32:47;2.43;;;1.00;;
15968;SDS011;8085;53.472;9.794;2023-04-03T13:35:31;1.83;;;0.90;;
15968;SDS011;8085;53.472;9.794;2023-04-03T13:38:02;1.57;;;0.80;;
15968;SDS011;8085;53.472;9.794;2023-04-03T13:40:31;2.53;;;1.20;;
15968;SDS011;8085;53.472;9.794;2023-04-03T13:43:00;2.77;;;1.10;;
15968;SDS011;8085;53.472;9.794;2023-04-03T13:45:29;4.13;;;0.93;;
15968;SDS011;8085;53.472;9.794;2023-04-03T13:48:14;2.43;;;0.93;;
15968;SDS011;8085;53.472;9.794;2023-04-03T13:50:50;4.30;;;1.20;;
15968;SDS011;8085;53.472;9.794;2023-04-03T13:53:25;2.73;;;1.00;;
15968;SDS011;8085;53.472;9.794;2023-04-03T13:55:55;6.40;;;1.17;;
15968;SDS011;8085;53.472;9.794;2023-04-03T13:58:25;4.87;;;0.80;;
15968;SDS011;8085;53.472;9.794;2023-04-03T14:00:59;3.30;;;1.20;;
15968;SDS011;8085;53.472;9.794;2023-04-03T14:03:39;3.57;;;0.80;;
15968;SDS011;8085;53.472;9.794;2023-04-03T14:06:10;1.80;;;0.70;;
15968;SDS011;8085;53.472;9.794;2023-04-03T14:08:39;2.03;;;1.00;;
15968;SDS011;8085;53.472;9.794;2023-04-03T14:11:08;4.10;;;1.03;;
15968;SDS011;8085;53.472;9.794;2023-04-03T14:13:41;2.00;;;1.00;;
15968;SDS011;8085;53.472;9.794;2023-04-03T14:16:12;2.33;;;0.97;;
15968;SDS011;8085;53.472;9.794;2023-04-03T14:18:42;2.13;;;0.90;;
15968;SDS011;8085;53.472;9.794;2023-04-03T14:21:10;2.87;;;1.00;;
15968;SDS011;8085;53.472;9.794;2023-04-03T14:23:39;2.30;;;1.00;;
15968;SDS011;8085;53.472;9.794;2023-04-03T14:26:08;5.47;;;1.03;;
15968;SDS011;8085;53.472;9.794;2023-04-03T14:28:38;2.53;;;0.90;;
15968;SDS011;8085;53.472;9.794;2023-04-03T14:31:08;1.93;;;0.90;;
15968;SDS011;8085;53.472;9.794;2023-04-03T14:33:43;1.47;;;0.80;;
15968;SDS011;8085;53.472;9.794;2023-04-03T14:36:11;2.60;;;1.00;;
15968;SDS011;8085;53.472;9.794;2023-04-03T14:38:40;4.73;;;0.93;;
15968;SDS011;8085;53.472;9.794;2023-04-03T14:41:10;5.80;;;1.13;;
15968;SDS011;8085;53.472;9.794;2023-04-03T14:43:42;3.60;;;0.83;;
15968;SDS011;8085;53.472;9.794;2023-04-03T14:46:18;2.53;;;0.73;;
15968;SDS011;8085;53.472;9.794;2023-04-03T14:48:48;2.33;;;0.90;;
15968;SDS011;8085;53.472;9.794;2023-04-03T14:51:17;4.27;;;1.37;;
15968;SDS011;8085;53.472;9.794;2023-04-03T14:53:52;3.07;;;0.97;;
15968;SDS011;8085;53.472;9.794;2023-04-03T14:56:21;2.03;;;0.83;;
15968;SDS011;8085;53.472;9.794;2023-04-03T14:58:52;2.60;;;0.80;;
15968;SDS011;8085;53.472;9.794;2023-04-03T15:01:23;2.13;;;0.73;;
15968;SDS011;8085;53.472;9.794;2023-04-03T15:03:50;2.23;;;0.80;;
15968;SDS011;8085;53.472;9.794;2023-04-03T15:06:17;2.93;;;0.80;;
15968;SDS011;8085;53.472;9.794;2023-04-03T15:08:46;2.30;;;1.20;;
15968;SDS011;8085;53.472;9.794;2023-04-03T15:11:16;1.90;;;1.07;;
15968;SDS011;8085;53.472;9.794;2023-04-03T15:13:43;1.40;;;0.77;;
15968;SDS011;8085;53.472;9.794;2023-04-03T15:16:12;2.33;;;1.13;;
15968;SDS011;8085;53.472;9.794;2023-04-03T15:18:43;5.83;;;1.10;;
15968;SDS011;8085;53.472;9.794;2023-04-03T15:21:12;2.60;;;1.00;;
15968;SDS011;8085;53.472;9.794;2023-04-03T15:23:45;1.53;;;0.90;;
15968;SDS011;8085;53.472;9.794;2023-04-03T15:26:12;2.50;;;0.80;;
15968;SDS011;8085;53.472;9.794;2023-04-03T15:28:40;1.87;;;0.83;;
15968;SDS011;8085;53.472;9.794;2023-04-03T15:31:09;2.33;;;0.93;;
15968;SDS011;8085;53.472;9.794;2023-04-03T15:33:36;1.57;;;0.70;;
15968;SDS011;8085;53.472;9.794;2023-04-03T15:36:05;3.67;;;1.27;;
15968;SDS011;8085;53.472;9.794;2023-04-03T15:38:32;3.27;;;1.30;;
15968;SDS011;8085;53.472;9.794;2023-04-03T15:41:00;3.40;;;0.90;;
15968;SDS011;8085;53.472;9.794;2023-04-03T15:43:27;1.63;;;0.90;;
15968;SDS011;8085;53.472;9.794;2023-04-03T15:45:55;3.10;;;1.20;;
15968;SDS011;8085;53.472;9.794;2023-04-03T15:48:24;1.43;;;0.57;;
15968;SDS011;8085;53.472;9.794;2023-04-03T15:50:51;2.30;;;0.80;;